createdAt,value
2023-05-16T00:00:01.731Z,28.83
2023-05-16T00:02:34.642Z,28.83
2023-05-16T00:05:05.157Z,28.88
2023-05-16T00:07:34.857Z,28.71
2023-05-16T00:10:04.202Z,28.47
2023-05-16T00:12:34.589Z,28.68
2023-05-16T00:15:14.593Z,28.52
2023-05-16T00:17:47.330Z,27.99
2023-05-16T00:20:18.030Z,28.07
2023-05-16T00:22:46.851Z,27.97
2023-05-16T00:25:15.733Z,27.62
2023-05-16T00:27:44.582Z,27.71
2023-05-16T00:30:13.879Z,27.82
2023-05-16T00:32:43.104Z,27.48
2023-05-16T00:35:12.901Z,27.84
2023-05-16T00:37:42.121Z,27.04
2023-05-16T00:40:11.461Z,27.48
2023-05-16T00:42:40.830Z,27.16
2023-05-16T00:45:11.054Z,26.81
2023-05-16T00:47:39.879Z,26.64
2023-05-16T00:50:09.318Z,26.67
2023-05-16T00:52:38.391Z,26.61
2023-05-16T00:55:07.864Z,26.50
2023-05-16T00:57:37.560Z,26.61
2023-05-16T01:00:12.173Z,25.92
2023-05-16T01:02:41.872Z,26.22
2023-05-16T01:05:13.756Z,25.17
2023-05-16T01:07:42.706Z,25.35
2023-05-16T01:10:12.059Z,25.00
2023-05-16T01:12:57.922Z,25.06
2023-05-16T01:15:37.548Z,24.61
2023-05-16T01:18:17.918Z,24.13
2023-05-16T01:21:14.122Z,23.98
2023-05-16T01:24:04.204Z,23.65
2023-05-16T01:26:33.638Z,23.80
2023-05-16T01:29:04.552Z,23.75
2023-05-16T01:31:33.396Z,23.98
2023-05-16T01:34:02.283Z,23.60
2023-05-16T01:36:38.564Z,22.43
2023-05-16T01:39:21.475Z,22.42
2023-05-16T01:42:05.394Z,21.76
2023-05-16T01:44:54.212Z,22.14
2023-05-16T01:47:26.080Z,22.42
2023-05-16T01:50:15.628Z,22.55
2023-05-16T01:53:07.509Z,22.59
2023-05-16T01:55:49.530Z,22.08
2023-05-16T01:58:22.743Z,21.35
2023-05-16T02:00:55.052Z,21.00
2023-05-16T02:03:24.371Z,20.91
2023-05-16T02:05:53.623Z,20.77
2023-05-16T02:08:22.530Z,20.71
2023-05-16T02:10:52.244Z,21.22
2023-05-16T02:13:21.386Z,21.41
2023-05-16T02:15:50.280Z,20.53
2023-05-16T02:18:19.919Z,19.29
2023-05-16T02:20:48.907Z,19.14
2023-05-16T02:23:18.015Z,18.53
2023-05-16T02:25:46.889Z,18.39
2023-05-16T02:28:15.740Z,18.61
2023-05-16T02:30:44.519Z,18.14
2023-05-16T02:33:13.440Z,17.88
2023-05-16T02:35:42.307Z,17.71
2023-05-16T02:38:11.112Z,16.88
2023-05-16T02:40:39.924Z,17.24
2023-05-16T02:43:08.836Z,17.50
2023-05-16T02:45:37.742Z,17.40
2023-05-16T02:48:06.861Z,16.43
2023-05-16T02:50:38.361Z,16.85
2023-05-16T02:53:07.304Z,16.72
2023-05-16T02:55:38.190Z,16.86
2023-05-16T02:58:07.293Z,16.97
2023-05-16T03:00:36.727Z,16.72
2023-05-16T03:03:06.056Z,16.99
2023-05-16T03:05:35.148Z,16.79
2023-05-16T03:08:03.929Z,16.91
2023-05-16T03:10:32.804Z,17.16
2023-05-16T03:13:01.733Z,17.06
2023-05-16T03:15:31.152Z,17.39
2023-05-16T03:18:00.063Z,17.47
2023-05-16T03:20:29.166Z,17.24
2023-05-16T03:22:58.633Z,16.98
2023-05-16T03:25:27.732Z,16.88
2023-05-16T03:27:57.350Z,16.77
2023-05-16T03:30:27.150Z,16.68
2023-05-16T03:32:56.697Z,16.92
2023-05-16T03:35:26.018Z,16.67
2023-05-16T03:37:55.492Z,16.67
2023-05-16T03:40:24.537Z,16.86
2023-05-16T03:42:54.057Z,17.09
2023-05-16T03:45:23.088Z,16.79
2023-05-16T03:47:52.343Z,16.79
2023-05-16T03:50:21.243Z,16.26
2023-05-16T03:52:50.328Z,16.46
2023-05-16T03:55:19.197Z,16.43
2023-05-16T03:57:50.708Z,16.64
2023-05-16T04:00:20.707Z,16.09
2023-05-16T04:02:50.138Z,15.08
2023-05-16T04:05:19.315Z,15.36
2023-05-16T04:07:48.270Z,14.97
2023-05-16T04:10:17.052Z,15.15
2023-05-16T04:12:46.503Z,14.68
2023-05-16T04:15:15.315Z,14.73
2023-05-16T04:17:44.840Z,14.53
2023-05-16T04:20:14.019Z,14.28
2023-05-16T04:22:43.053Z,14.68
2023-05-16T04:25:12.953Z,13.63
2023-05-16T04:27:41.856Z,13.51
2023-05-16T04:30:12.525Z,13.08
2023-05-16T04:32:41.653Z,12.77
2023-05-16T04:35:10.784Z,12.24
2023-05-16T04:37:39.641Z,12.62
2023-05-16T04:40:10.458Z,13.02
2023-05-16T04:42:39.316Z,13.37
2023-05-16T04:45:12.016Z,13.29
2023-05-16T04:47:41.474Z,13.74
2023-05-16T04:50:10.944Z,14.08
2023-05-16T04:52:39.873Z,14.46
2023-05-16T04:55:09.308Z,14.38
2023-05-16T04:57:38.413Z,14.33
2023-05-16T05:00:11.302Z,14.21
2023-05-16T05:02:40.366Z,13.84
2023-05-16T05:05:10.023Z,13.96
2023-05-16T05:07:38.947Z,13.87
2023-05-16T05:10:09.318Z,13.99
2023-05-16T05:12:38.449Z,14.05
2023-05-16T05:15:07.929Z,13.77
2023-05-16T05:17:38.390Z,14.29
2023-05-16T05:20:07.830Z,14.62
2023-05-16T05:22:36.908Z,14.76
2023-05-16T05:25:06.751Z,15.08
2023-05-16T05:27:35.664Z,15.01
2023-05-16T05:30:04.947Z,14.52
2023-05-16T05:32:34.288Z,13.81
2023-05-16T05:35:04.521Z,14.02
2023-05-16T05:37:33.422Z,14.05
2023-05-16T05:40:02.397Z,13.92
2023-05-16T05:42:34.502Z,13.85
2023-05-16T05:45:03.463Z,13.54
2023-05-16T05:47:34.556Z,13.43
2023-05-16T05:50:04.750Z,13.44
2023-05-16T05:52:34.424Z,13.47
2023-05-16T05:55:03.198Z,13.73
2023-05-16T05:57:33.384Z,14.12
2023-05-16T06:00:02.154Z,14.43
2023-05-16T06:02:38.055Z,14.70
2023-05-16T06:05:07.687Z,14.94
2023-05-16T06:07:36.607Z,14.57
2023-05-16T06:10:06.671Z,14.51
2023-05-16T06:12:35.485Z,14.78
2023-05-16T06:15:04.618Z,14.90
2023-05-16T06:17:34.143Z,15.06
2023-05-16T06:20:03.289Z,15.13
2023-05-16T06:22:35.192Z,15.06
2023-05-16T06:25:04.138Z,14.96
2023-05-16T06:27:35.152Z,15.08
2023-05-16T06:30:04.211Z,15.14
2023-05-16T06:32:35.252Z,15.29
2023-05-16T06:35:04.891Z,15.42
2023-05-16T06:37:34.238Z,15.38
2023-05-16T06:40:03.222Z,15.04
2023-05-16T06:42:34.042Z,14.54
2023-05-16T06:45:03.155Z,13.97
2023-05-16T06:47:35.773Z,14.41
2023-05-16T06:50:05.407Z,14.42
2023-05-16T06:52:34.489Z,14.44
2023-05-16T06:55:03.341Z,14.18
2023-05-16T06:57:33.830Z,14.79
2023-05-16T07:00:02.798Z,14.97
2023-05-16T07:02:38.222Z,14.83
2023-05-16T07:05:08.264Z,14.58
2023-05-16T07:07:37.428Z,14.60
2023-05-16T07:10:06.832Z,14.40
2023-05-16T07:12:39.038Z,14.18
2023-05-16T07:15:08.601Z,13.83
2023-05-16T07:17:37.842Z,13.71
2023-05-16T07:20:08.875Z,13.63
2023-05-16T07:22:37.793Z,13.90
2023-05-16T07:25:07.401Z,13.91
2023-05-16T07:27:37.324Z,13.79
2023-05-16T07:30:06.580Z,13.73
2023-05-16T07:32:35.632Z,14.00
2023-05-16T07:35:05.422Z,14.18
2023-05-16T07:37:34.653Z,14.06
2023-05-16T07:40:04.433Z,13.77
2023-05-16T07:42:34.787Z,13.49
2023-05-16T07:45:04.271Z,13.79
2023-05-16T07:47:34.782Z,14.14
2023-05-16T07:50:03.844Z,13.98
2023-05-16T07:52:33.965Z,13.90
2023-05-16T07:55:03.044Z,13.86
2023-05-16T07:57:33.690Z,14.03
2023-05-16T08:00:02.666Z,14.73
2023-05-16T08:02:42.658Z,15.25
2023-05-16T08:05:12.085Z,15.73
2023-05-16T08:07:41.276Z,15.88
2023-05-16T08:10:11.812Z,15.94
2023-05-16T08:12:44.368Z,15.80
2023-05-16T08:15:13.323Z,15.91
2023-05-16T08:17:42.889Z,16.17
2023-05-16T08:20:12.584Z,16.36
2023-05-16T08:22:41.617Z,16.26
2023-05-16T08:25:10.729Z,17.18
2023-05-16T08:27:39.717Z,17.02
2023-05-16T08:30:09.479Z,17.18
2023-05-16T08:32:38.824Z,17.18
2023-05-16T08:35:08.606Z,17.05
2023-05-16T08:37:37.659Z,17.36
2023-05-16T08:40:11.742Z,17.16
2023-05-16T08:42:42.801Z,17.11
2023-05-16T08:45:13.557Z,17.33
2023-05-16T08:47:44.902Z,17.41
2023-05-16T08:50:15.141Z,17.18
2023-05-16T08:52:45.392Z,17.60
2023-05-16T08:55:16.056Z,17.51
2023-05-16T08:57:46.212Z,17.88
2023-05-16T09:00:16.988Z,17.88
2023-05-16T09:02:47.072Z,18.06
2023-05-16T09:05:18.208Z,17.97
2023-05-16T09:07:47.474Z,18.02
2023-05-16T09:10:16.948Z,18.12
2023-05-16T09:12:48.766Z,18.19
2023-05-16T09:15:22.065Z,18.44
2023-05-16T09:17:51.128Z,18.48
2023-05-16T09:20:21.263Z,18.62
2023-05-16T09:22:55.725Z,18.52
2023-05-16T09:25:30.988Z,18.24
2023-05-16T09:28:03.044Z,18.69
2023-05-16T09:30:36.127Z,18.46
2023-05-16T09:33:08.324Z,18.51
2023-05-16T09:35:43.768Z,18.53
2023-05-16T09:38:18.769Z,18.59
2023-05-16T09:40:47.954Z,18.76
2023-05-16T09:43:18.415Z,18.48
2023-05-16T09:45:49.254Z,18.81
2023-05-16T09:48:19.318Z,18.96
2023-05-16T09:50:53.678Z,18.78
2023-05-16T09:53:30.838Z,18.87
2023-05-16T09:56:16.243Z,19.14
2023-05-16T09:58:47.993Z,18.99
2023-05-16T10:01:17.940Z,19.18
2023-05-16T10:03:47.069Z,19.34
2023-05-16T10:06:17.244Z,19.27
2023-05-16T10:08:47.267Z,19.51
2023-05-16T10:11:19.326Z,19.18
2023-05-16T10:13:53.786Z,19.74
2023-05-16T10:16:26.620Z,19.53
2023-05-16T10:18:56.975Z,19.48
2023-05-16T10:21:27.198Z,19.68
2023-05-16T10:23:59.448Z,19.67
2023-05-16T10:26:28.991Z,19.58
2023-05-16T10:28:58.075Z,19.78
2023-05-16T10:31:27.434Z,19.96
2023-05-16T10:33:58.275Z,19.98
2023-05-16T10:36:27.520Z,20.25
2023-05-16T10:38:57.324Z,20.20
2023-05-16T10:41:26.604Z,20.38
2023-05-16T10:43:59.484Z,20.51
2023-05-16T10:46:30.658Z,20.80
2023-05-16T10:49:00.248Z,20.74
2023-05-16T10:51:37.114Z,20.94
2023-05-16T10:54:09.959Z,20.96
2023-05-16T10:56:39.312Z,21.25
2023-05-16T10:59:29.063Z,21.65
2023-05-16T11:01:58.955Z,21.73
2023-05-16T11:04:46.978Z,21.87
2023-05-16T11:07:18.233Z,22.00
2023-05-16T11:09:53.844Z,21.76
2023-05-16T11:12:22.741Z,22.14
2023-05-16T11:14:52.778Z,21.98
2023-05-16T11:17:24.257Z,21.93
2023-05-16T11:20:00.120Z,22.18
2023-05-16T11:22:34.840Z,22.19
2023-05-16T11:25:09.510Z,22.08
2023-05-16T11:27:47.086Z,22.33
2023-05-16T11:30:22.363Z,22.69
2023-05-16T11:32:51.376Z,23.06
2023-05-16T11:35:20.334Z,23.29
2023-05-16T11:37:49.429Z,24.03
2023-05-16T11:40:18.923Z,23.70
2023-05-16T11:42:49.943Z,23.79
2023-05-16T11:45:26.397Z,23.69
2023-05-16T11:47:55.858Z,24.14
2023-05-16T11:50:25.242Z,23.89
2023-05-16T11:52:56.777Z,24.21
2023-05-16T11:55:41.236Z,24.35
2023-05-16T11:58:13.019Z,24.09
2023-05-16T12:00:50.646Z,24.39
2023-05-16T12:03:21.705Z,24.38
2023-05-16T12:05:54.782Z,24.38
2023-05-16T12:08:24.356Z,24.56
2023-05-16T12:10:54.208Z,24.66
2023-05-16T12:13:25.171Z,24.43
2023-05-16T12:15:54.491Z,24.65
2023-05-16T12:18:28.464Z,24.95
2023-05-16T12:20:57.730Z,24.52
2023-05-16T12:23:28.436Z,24.73
2023-05-16T12:26:02.736Z,25.17
2023-05-16T12:28:39.051Z,25.21
2023-05-16T12:31:32.249Z,25.50
2023-05-16T12:34:01.895Z,25.14
2023-05-16T12:36:35.988Z,25.70
2023-05-16T12:39:05.275Z,26.30
2023-05-16T12:41:34.361Z,26.45
2023-05-16T12:44:15.551Z,26.61
2023-05-16T12:46:46.820Z,26.79
2023-05-16T12:49:16.461Z,27.03
2023-05-16T12:51:56.662Z,27.06
2023-05-16T12:54:26.137Z,27.22
2023-05-16T12:56:55.018Z,27.32
2023-05-16T12:59:24.150Z,27.19
2023-05-16T13:01:54.181Z,27.48
2023-05-16T13:04:24.577Z,27.52
2023-05-16T13:09:27.568Z,27.72
2023-05-16T13:11:59.463Z,28.45
2023-05-16T13:14:28.682Z,28.87
2023-05-16T13:16:57.996Z,30.21
2023-05-16T13:19:27.139Z,30.13
2023-05-16T13:21:56.831Z,30.53
2023-05-16T13:24:25.945Z,30.43
2023-05-16T13:26:55.284Z,31.25
2023-05-16T13:29:24.325Z,31.31
2023-05-16T13:31:56.055Z,31.17
2023-05-16T13:34:25.059Z,31.23
2023-05-16T13:36:54.941Z,31.10
2023-05-16T13:39:24.372Z,31.72
2023-05-16T13:41:54.906Z,31.83
2023-05-16T13:44:24.582Z,31.93
2023-05-16T13:46:53.886Z,32.04
2023-05-16T13:49:22.832Z,32.20
2023-05-16T13:51:53.088Z,32.14
2023-05-16T13:54:23.364Z,31.79
2023-05-16T13:56:52.708Z,32.35
2023-05-16T13:59:37.663Z,32.44
2023-05-16T14:02:11.534Z,32.94
2023-05-16T14:04:40.673Z,33.19
2023-05-16T14:07:09.620Z,32.85
2023-05-16T14:09:40.172Z,32.98
2023-05-16T14:12:09.819Z,33.06
2023-05-16T14:14:39.788Z,33.35
2023-05-16T14:17:08.659Z,33.67
2023-05-16T14:19:37.942Z,33.64
2023-05-16T14:22:06.900Z,34.21
2023-05-16T14:24:35.841Z,33.92
2023-05-16T14:27:04.914Z,34.48
2023-05-16T14:29:33.851Z,34.43
2023-05-16T14:32:02.902Z,34.50
2023-05-16T14:34:32.006Z,35.29
2023-05-16T14:37:04.524Z,35.30
2023-05-16T14:39:35.040Z,35.76
2023-05-16T14:42:05.207Z,35.63
2023-05-16T14:44:36.006Z,36.12
2023-05-16T14:47:05.015Z,35.92
2023-05-16T14:49:33.905Z,36.45
2023-05-16T14:52:02.783Z,38.04
2023-05-16T14:54:31.862Z,38.21
2023-05-16T14:57:00.943Z,38.38
2023-05-16T14:59:29.813Z,37.89
2023-05-16T15:02:00.501Z,38.30
2023-05-16T15:04:30.085Z,38.19
2023-05-16T15:06:59.394Z,38.35
2023-05-16T15:09:28.392Z,38.21
2023-05-16T15:11:57.321Z,38.69
2023-05-16T15:14:27.630Z,39.22
2023-05-16T15:16:56.471Z,38.97
2023-05-16T15:19:25.589Z,38.45
2023-05-16T15:21:55.808Z,39.14
2023-05-16T15:24:25.367Z,39.36
2023-05-16T15:26:54.454Z,39.41
2023-05-16T15:29:23.382Z,39.68
2023-05-16T15:31:52.922Z,40.30
2023-05-16T15:34:22.424Z,40.48
2023-05-16T15:36:51.440Z,41.65
2023-05-16T15:39:20.367Z,42.08
2023-05-16T15:42:08.407Z,43.41
2023-05-16T15:44:38.364Z,44.29
2023-05-16T15:47:08.352Z,44.93
2023-05-16T15:49:37.765Z,45.71
2023-05-16T15:52:07.168Z,46.54
2023-05-16T15:54:37.211Z,46.70
2023-05-16T15:57:06.524Z,46.99
2023-05-16T15:59:35.500Z,47.96
2023-05-16T16:02:06.361Z,48.64
2023-05-16T16:04:35.459Z,49.33
2023-05-16T16:07:04.502Z,48.94
2023-05-16T16:09:33.398Z,49.23
2023-05-16T16:12:03.132Z,48.89
2023-05-16T16:14:32.138Z,50.03
2023-05-16T16:17:01.200Z,49.65
2023-05-16T16:19:34.171Z,49.75
2023-05-16T16:22:03.263Z,50.08
2023-05-16T16:24:32.286Z,50.62
2023-05-16T16:27:01.280Z,50.78
2023-05-16T16:29:30.609Z,50.92
2023-05-16T16:32:01.223Z,51.44
2023-05-16T16:34:30.229Z,50.71
2023-05-16T16:36:59.137Z,51.30
2023-05-16T16:39:29.457Z,51.32
2023-05-16T16:42:01.937Z,51.67
2023-05-16T16:44:30.883Z,51.23
2023-05-16T16:46:59.966Z,50.43
2023-05-16T16:49:28.939Z,50.69
2023-05-16T16:51:58.534Z,51.17
2023-05-16T16:54:28.709Z,51.12
2023-05-16T16:56:57.612Z,51.39
2023-05-16T16:59:26.608Z,51.66
2023-05-16T17:01:56.299Z,52.44
2023-05-16T17:04:25.376Z,52.60
2023-05-16T17:06:54.234Z,52.53
2023-05-16T17:09:24.103Z,52.67
2023-05-16T17:11:52.917Z,52.65
2023-05-16T17:14:22.180Z,52.57
2023-05-16T17:16:51.097Z,52.30
2023-05-16T17:19:20.107Z,51.80
2023-05-16T17:21:51.085Z,51.92
2023-05-16T17:24:20.201Z,52.69
2023-05-16T17:26:49.330Z,52.29
2023-05-16T17:29:18.287Z,53.08
2023-05-16T17:31:47.291Z,52.74
2023-05-16T17:34:17.121Z,52.84
2023-05-16T17:36:46.366Z,53.00
2023-05-16T17:39:15.707Z,52.23
2023-05-16T17:41:44.526Z,52.24
2023-05-16T17:44:13.623Z,53.50
2023-05-16T17:46:43.229Z,52.82
2023-05-16T17:49:12.336Z,53.36
2023-05-16T17:51:48.169Z,53.59
2023-05-16T17:54:19.082Z,53.53
2023-05-16T17:56:48.736Z,53.66
2023-05-16T17:59:18.080Z,53.75
2023-05-16T18:01:49.963Z,54.29
2023-05-16T18:04:21.498Z,54.16
2023-05-16T18:06:53.506Z,54.70
2023-05-16T18:09:22.498Z,54.68
2023-05-16T18:11:52.215Z,54.36
2023-05-16T18:14:21.228Z,54.35
2023-05-16T18:16:50.362Z,54.83
2023-05-16T18:19:19.808Z,54.62
2023-05-16T18:21:48.735Z,54.50
2023-05-16T18:24:17.717Z,54.61
2023-05-16T18:26:48.891Z,54.47
2023-05-16T18:29:17.787Z,54.03
2023-05-16T18:31:46.902Z,54.69
2023-05-16T18:34:15.818Z,54.63
2023-05-16T18:36:44.692Z,54.89
2023-05-16T18:39:13.547Z,54.74
2023-05-16T18:41:44.464Z,54.64
2023-05-16T18:44:13.893Z,54.33
2023-05-16T18:46:42.793Z,54.49
2023-05-16T18:49:11.597Z,54.56
2023-05-16T18:51:40.559Z,54.51
2023-05-16T18:54:09.455Z,55.16
2023-05-16T18:56:38.350Z,54.83
2023-05-16T18:59:09.833Z,55.25
2023-05-16T19:01:39.480Z,55.44
2023-05-16T19:04:08.678Z,55.18
2023-05-16T19:06:38.187Z,55.30
2023-05-16T19:09:08.031Z,55.54
2023-05-16T19:11:38.120Z,55.39
2023-05-16T19:14:07.292Z,55.31
2023-05-16T19:16:36.385Z,55.53
2023-05-16T19:19:06.293Z,54.86
2023-05-16T19:21:35.734Z,55.05
2023-05-16T19:24:05.227Z,54.83
2023-05-16T19:26:34.132Z,55.31
2023-05-16T19:29:03.242Z,55.34
2023-05-16T19:31:32.388Z,55.21
2023-05-16T19:34:01.274Z,55.00
2023-05-16T19:36:30.511Z,55.30
2023-05-16T19:39:00.112Z,55.02
2023-05-16T19:41:29.197Z,54.86
2023-05-16T19:43:58.069Z,55.15
2023-05-16T19:46:26.924Z,55.22
2023-05-16T19:48:56.308Z,55.18
2023-05-16T19:51:40.298Z,55.71
2023-05-16T19:54:10.644Z,55.28
2023-05-16T19:56:39.689Z,55.62
2023-05-16T19:59:08.540Z,55.43
2023-05-16T20:01:38.376Z,56.18
2023-05-16T20:04:07.930Z,55.61
2023-05-16T20:06:36.899Z,56.46
2023-05-16T20:09:06.653Z,56.70
2023-05-16T20:11:36.069Z,56.94
2023-05-16T20:14:04.915Z,57.34
2023-05-16T20:16:33.782Z,57.50
2023-05-16T20:19:02.831Z,57.63
2023-05-16T20:21:31.889Z,57.69
2023-05-16T20:24:00.985Z,57.92
2023-05-16T20:26:30.014Z,58.53
2023-05-16T20:28:59.050Z,58.76
2023-05-16T20:31:27.992Z,58.85
2023-05-16T20:33:56.983Z,59.88
2023-05-16T20:36:26.125Z,59.65
2023-05-16T20:38:55.240Z,59.70
2023-05-16T20:41:24.064Z,59.83
2023-05-16T20:43:52.876Z,59.77
2023-05-16T20:46:21.938Z,59.98
2023-05-16T20:48:50.944Z,60.23
2023-05-16T20:51:19.859Z,59.69
2023-05-16T20:53:48.840Z,60.86
2023-05-16T20:56:17.842Z,60.61
2023-05-16T20:58:46.659Z,60.88
2023-05-16T21:01:16.395Z,61.13
2023-05-16T21:03:45.465Z,60.82
2023-05-16T21:06:14.330Z,61.03
2023-05-16T21:08:43.248Z,61.31
2023-05-16T21:11:12.297Z,60.70
2023-05-16T21:13:41.338Z,60.77
2023-05-16T21:16:10.324Z,61.03
2023-05-16T21:18:39.635Z,61.23
2023-05-16T21:21:08.685Z,61.12
2023-05-16T21:23:37.791Z,61.27
2023-05-16T21:26:07.070Z,61.13
2023-05-16T21:28:42.655Z,61.36
2023-05-16T21:31:20.269Z,61.83
2023-05-16T21:33:52.643Z,61.44
2023-05-16T21:36:22.185Z,61.80
2023-05-16T21:38:51.202Z,61.56
2023-05-16T21:41:22.190Z,61.62
2023-05-16T21:43:51.304Z,61.61
2023-05-16T21:46:20.142Z,61.64
2023-05-16T21:48:49.251Z,61.59
2023-05-16T21:51:19.637Z,61.04
2023-05-16T21:53:48.653Z,61.09
2023-05-16T21:56:18.435Z,61.31
2023-05-16T21:58:47.429Z,61.25
2023-05-16T22:01:17.420Z,62.07
2023-05-16T22:03:46.582Z,61.63
2023-05-16T22:06:15.473Z,61.46
2023-05-16T22:08:44.530Z,61.39
2023-05-16T22:11:13.598Z,61.28
2023-05-16T22:13:42.551Z,61.56
2023-05-16T22:16:11.752Z,61.17
2023-05-16T22:18:40.904Z,61.48
2023-05-16T22:21:09.943Z,60.81
2023-05-16T22:23:38.809Z,60.80
2023-05-16T22:26:07.756Z,60.88
2023-05-16T22:28:36.616Z,61.30
2023-05-16T22:31:05.519Z,61.43
2023-05-16T22:33:34.384Z,60.99
2023-05-16T22:36:06.260Z,61.08
2023-05-16T22:38:35.352Z,61.19
2023-05-16T22:41:04.280Z,61.40
2023-05-16T22:43:33.140Z,61.24
2023-05-16T22:46:03.326Z,61.59
2023-05-16T22:48:32.628Z,61.77
2023-05-16T22:51:03.142Z,61.51
2023-05-16T22:53:32.322Z,61.40
2023-05-16T22:56:01.332Z,60.86
2023-05-16T22:58:30.448Z,61.58
2023-05-16T23:00:59.977Z,61.33
2023-05-16T23:03:30.187Z,61.56
2023-05-16T23:05:59.375Z,61.33
2023-05-16T23:08:28.653Z,61.44
2023-05-16T23:10:57.869Z,61.82
2023-05-16T23:13:26.820Z,61.97
2023-05-16T23:15:55.754Z,61.70
2023-05-16T23:18:24.864Z,62.21
2023-05-16T23:20:53.915Z,62.17
2023-05-16T23:23:22.834Z,62.18
2023-05-16T23:25:51.586Z,62.18
2023-05-16T23:28:20.728Z,61.78
2023-05-16T23:30:49.623Z,62.05
2023-05-16T23:33:18.681Z,62.26
2023-05-16T23:35:47.619Z,62.27
2023-05-16T23:38:16.519Z,62.01
2023-05-16T23:40:45.467Z,61.59
2023-05-16T23:43:14.531Z,61.92
2023-05-16T23:45:43.636Z,61.39
2023-05-16T23:48:12.589Z,61.62
2023-05-16T23:50:41.745Z,61.06
2023-05-16T23:53:10.806Z,61.07
2023-05-16T23:55:39.709Z,61.56
2023-05-16T23:58:08.650Z,60.98
